sensor_id;sensor_type;location;lat;lon;timestamp;temperature;humidity
65876;HTU21D;52657;51.128;5.938;2023-02-13T00:01:09;8.93;71.72
65876;HTU21D;52657;51.128;5.938;2023-02-13T00:03:35;8.90;71.71
65876;HTU21D;52657;51.128;5.938;2023-02-13T00:06:00;8.88;71.84
65876;HTU21D;52657;51.128;5.938;2023-02-13T00:08:26;8.82;71.99
65876;HTU21D;52657;51.128;5.938;2023-02-13T00:10:52;8.81;72.11
65876;HTU21D;52657;51.128;5.938;2023-02-13T00:13:17;8.82;72.20
65876;HTU21D;52657;51.128;5.938;2023-02-13T00:15:43;8.85;72.04
65876;HTU21D;52657;51.128;5.938;2023-02-13T00:18:09;8.85;71.96
65876;HTU21D;52657;51.128;5.938;2023-02-13T00:20:35;8.83;71.99
65876;HTU21D;52657;51.128;5.938;2023-02-13T00:23:01;8.85;72.00
65876;HTU21D;52657;51.128;5.938;2023-02-13T00:25:26;8.85;72.06
65876;HTU21D;52657;51.128;5.938;2023-02-13T00:27:52;8.82;72.10
65876;HTU21D;52657;51.128;5.938;2023-02-13T00:30:21;8.81;72.21
65876;HTU21D;52657;51.128;5.938;2023-02-13T00:32:47;8.81;72.36
65876;HTU21D;52657;51.128;5.938;2023-02-13T00:35:13;8.82;72.39
65876;HTU21D;52657;51.128;5.938;2023-02-13T00:37:39;8.81;72.48
65876;HTU21D;52657;51.128;5.938;2023-02-13T00:40:05;8.79;72.55
65876;HTU21D;52657;51.128;5.938;2023-02-13T00:42:31;8.78;72.54
65876;HTU21D;52657;51.128;5.938;2023-02-13T00:44:57;8.78;72.29
65876;HTU21D;52657;51.128;5.938;2023-02-13T00:47:22;8.76;71.83
65876;HTU21D;52657;51.128;5.938;2023-02-13T00:49:48;8.76;71.13
65876;HTU21D;52657;51.128;5.938;2023-02-13T00:52:14;8.72;70.63
65876;HTU21D;52657;51.128;5.938;2023-02-13T00:54:40;8.68;70.14
65876;HTU21D;52657;51.128;5.938;2023-02-13T00:57:05;8.68;70.18
65876;HTU21D;52657;51.128;5.938;2023-02-13T00:59:31;8.68;70.38
65876;HTU21D;52657;51.128;5.938;2023-02-13T01:01:58;8.65;70.39
65876;HTU21D;52657;51.128;5.938;2023-02-13T01:04:23;8.65;70.58
65876;HTU21D;52657;51.128;5.938;2023-02-13T01:06:49;8.64;71.00
65876;HTU21D;52657;51.128;5.938;2023-02-13T01:09:15;8.63;71.08
65876;HTU21D;52657;51.128;5.938;2023-02-13T01:11:40;8.61;70.87
65876;HTU21D;52657;51.128;5.938;2023-02-13T01:14:06;8.59;70.87
65876;HTU21D;52657;51.128;5.938;2023-02-13T01:16:32;8.59;71.15
65876;HTU21D;52657;51.128;5.938;2023-02-13T01:18:57;8.58;71.26
65876;HTU21D;52657;51.128;5.938;2023-02-13T01:21:23;8.58;70.87
65876;HTU21D;52657;51.128;5.938;2023-02-13T01:23:51;8.56;70.62
65876;HTU21D;52657;51.128;5.938;2023-02-13T01:26:22;8.55;70.12
65876;HTU21D;52657;51.128;5.938;2023-02-13T01:28:55;8.52;69.85
65876;HTU21D;52657;51.128;5.938;2023-02-13T01:31:23;8.47;69.81
65876;HTU21D;52657;51.128;5.938;2023-02-13T01:33:49;8.45;70.10
65876;HTU21D;52657;51.128;5.938;2023-02-13T01:36:15;8.43;70.25
65876;HTU21D;52657;51.128;5.938;2023-02-13T01:38:41;8.42;70.15
65876;HTU21D;52657;51.128;5.938;2023-02-13T01:41:09;8.39;69.61
65876;HTU21D;52657;51.128;5.938;2023-02-13T01:43:54;8.36;69.28
65876;HTU21D;52657;51.128;5.938;2023-02-13T01:46:40;8.34;69.16
65876;HTU21D;52657;51.128;5.938;2023-02-13T01:49:21;8.34;68.95
65876;HTU21D;52657;51.128;5.938;2023-02-13T01:51:53;8.31;69.00
65876;HTU21D;52657;51.128;5.938;2023-02-13T01:54:27;8.28;69.19
65876;HTU21D;52657;51.128;5.938;2023-02-13T01:57:04;8.26;69.55
65876;HTU21D;52657;51.128;5.938;2023-02-13T01:59:39;8.23;69.97
65876;HTU21D;52657;51.128;5.938;2023-02-13T02:02:06;8.21;70.17
65876;HTU21D;52657;51.128;5.938;2023-02-13T02:04:36;8.20;70.29
65876;HTU21D;52657;51.128;5.938;2023-02-13T02:07:22;8.17;70.45
65876;HTU21D;52657;51.128;5.938;2023-02-13T02:09:54;8.16;70.71
65876;HTU21D;52657;51.128;5.938;2023-02-13T02:12:28;8.15;70.83
65876;HTU21D;52657;51.128;5.938;2023-02-13T02:14:59;8.16;71.26
65876;HTU21D;52657;51.128;5.938;2023-02-13T02:17:29;8.16;71.48
65876;HTU21D;52657;51.128;5.938;2023-02-13T02:20:03;8.17;71.86
65876;HTU21D;52657;51.128;5.938;2023-02-13T02:28:04;8.20;72.62
65876;HTU21D;52657;51.128;5.938;2023-02-13T02:39:49;8.13;71.94
65876;HTU21D;52657;51.128;5.938;2023-02-13T02:45:33;8.12;72.25
65876;HTU21D;52657;51.128;5.938;2023-02-13T02:51:39;8.09;71.71
65876;HTU21D;52657;51.128;5.938;2023-02-13T02:57:16;8.09;72.67
65876;HTU21D;52657;51.128;5.938;2023-02-13T02:59:53;8.06;72.93
65876;HTU21D;52657;51.128;5.938;2023-02-13T03:02:38;8.05;72.62
65876;HTU21D;52657;51.128;5.938;2023-02-13T03:05:28;8.03;71.72
65876;HTU21D;52657;51.128;5.938;2023-02-13T03:08:14;8.00;70.75
65876;HTU21D;52657;51.128;5.938;2023-02-13T03:11:01;7.96;69.84
65876;HTU21D;52657;51.128;5.938;2023-02-13T03:13:49;7.92;69.77
65876;HTU21D;52657;51.128;5.938;2023-02-13T03:16:19;7.88;69.32
65876;HTU21D;52657;51.128;5.938;2023-02-13T03:19:05;7.84;68.94
65876;HTU21D;52657;51.128;5.938;2023-02-13T03:21:58;7.75;68.72
65876;HTU21D;52657;51.128;5.938;2023-02-13T03:28:00;7.62;68.14
65876;HTU21D;52657;51.128;5.938;2023-02-13T03:34:00;7.47;67.88
65876;HTU21D;52657;51.128;5.938;2023-02-13T03:36:46;7.43;67.87
65876;HTU21D;52657;51.128;5.938;2023-02-13T03:39:53;7.38;67.88
65876;HTU21D;52657;51.128;5.938;2023-02-13T03:42:25;7.35;67.68
65876;HTU21D;52657;51.128;5.938;2023-02-13T03:45:04;7.28;67.44
65876;HTU21D;52657;51.128;5.938;2023-02-13T03:48:04;7.23;67.52
65876;HTU21D;52657;51.128;5.938;2023-02-13T03:50:40;7.18;67.58
65876;HTU21D;52657;51.128;5.938;2023-02-13T03:53:12;7.15;67.37
65876;HTU21D;52657;51.128;5.938;2023-02-13T03:55:45;7.11;67.43
65876;HTU21D;52657;51.128;5.938;2023-02-13T03:58:36;7.08;67.62
65876;HTU21D;52657;51.128;5.938;2023-02-13T04:01:26;7.02;67.60
65876;HTU21D;52657;51.128;5.938;2023-02-13T04:04:30;7.01;67.60
65876;HTU21D;52657;51.128;5.938;2023-02-13T04:07:11;6.98;67.71
65876;HTU21D;52657;51.128;5.938;2023-02-13T04:09:57;6.93;67.84
65876;HTU21D;52657;51.128;5.938;2023-02-13T04:15:36;6.83;68.01
65876;HTU21D;52657;51.128;5.938;2023-02-13T04:18:10;6.82;68.03
65876;HTU21D;52657;51.128;5.938;2023-02-13T04:20:38;6.82;68.00
65876;HTU21D;52657;51.128;5.938;2023-02-13T04:23:09;6.81;67.96
65876;HTU21D;52657;51.128;5.938;2023-02-13T04:25:38;6.79;67.84
65876;HTU21D;52657;51.128;5.938;2023-02-13T04:28:05;6.80;67.61
65876;HTU21D;52657;51.128;5.938;2023-02-13T04:30:31;6.80;67.44
65876;HTU21D;52657;51.128;5.938;2023-02-13T04:32:57;6.79;67.30
65876;HTU21D;52657;51.128;5.938;2023-02-13T04:35:23;6.76;67.31
65876;HTU21D;52657;51.128;5.938;2023-02-13T04:37:49;6.74;67.46
65876;HTU21D;52657;51.128;5.938;2023-02-13T04:40:15;6.70;67.18
65876;HTU21D;52657;51.128;5.938;2023-02-13T04:42:40;6.59;67.19
65876;HTU21D;52657;51.128;5.938;2023-02-13T04:45:06;6.52;67.58
65876;HTU21D;52657;51.128;5.938;2023-02-13T04:47:32;6.49;67.91
65876;HTU21D;52657;51.128;5.938;2023-02-13T04:49:58;6.50;68.06
65876;HTU21D;52657;51.128;5.938;2023-02-13T04:52:24;6.53;68.32
65876;HTU21D;52657;51.128;5.938;2023-02-13T04:54:49;6.54;68.71
65876;HTU21D;52657;51.128;5.938;2023-02-13T04:57:15;6.57;68.83
65876;HTU21D;52657;51.128;5.938;2023-02-13T04:59:42;6.57;68.74
65876;HTU21D;52657;51.128;5.938;2023-02-13T05:02:08;6.56;68.55
65876;HTU21D;52657;51.128;5.938;2023-02-13T05:04:33;6.50;68.46
65876;HTU21D;52657;51.128;5.938;2023-02-13T05:06:59;6.45;68.52
65876;HTU21D;52657;51.128;5.938;2023-02-13T05:09:25;6.41;68.47
65876;HTU21D;52657;51.128;5.938;2023-02-13T05:11:53;6.36;68.46
65876;HTU21D;52657;51.128;5.938;2023-02-13T05:14:19;6.30;68.40
65876;HTU21D;52657;51.128;5.938;2023-02-13T05:16:46;6.28;68.30
65876;HTU21D;52657;51.128;5.938;2023-02-13T05:19:12;6.28;68.17
65876;HTU21D;52657;51.128;5.938;2023-02-13T05:21:37;6.23;68.14
65876;HTU21D;52657;51.128;5.938;2023-02-13T05:24:22;6.15;68.25
65876;HTU21D;52657;51.128;5.938;2023-02-13T05:26:47;6.14;68.42
65876;HTU21D;52657;51.128;5.938;2023-02-13T05:29:13;6.15;68.35
65876;HTU21D;52657;51.128;5.938;2023-02-13T05:31:52;6.14;68.21
65876;HTU21D;52657;51.128;5.938;2023-02-13T05:34:20;6.10;68.28
65876;HTU21D;52657;51.128;5.938;2023-02-13T05:36:45;6.10;68.34
65876;HTU21D;52657;51.128;5.938;2023-02-13T05:39:11;6.07;68.71
65876;HTU21D;52657;51.128;5.938;2023-02-13T05:41:38;6.09;69.90
65876;HTU21D;52657;51.128;5.938;2023-02-13T05:44:03;6.09;70.93
65876;HTU21D;52657;51.128;5.938;2023-02-13T05:46:29;6.11;71.54
65876;HTU21D;52657;51.128;5.938;2023-02-13T05:48:55;6.14;71.32
65876;HTU21D;52657;51.128;5.938;2023-02-13T05:51:21;6.14;71.17
65876;HTU21D;52657;51.128;5.938;2023-02-13T05:53:47;6.15;71.53
65876;HTU21D;52657;51.128;5.938;2023-02-13T05:56:13;6.16;71.69
65876;HTU21D;52657;51.128;5.938;2023-02-13T05:58:39;6.14;71.34
65876;HTU21D;52657;51.128;5.938;2023-02-13T06:01:05;6.15;71.42
65876;HTU21D;52657;51.128;5.938;2023-02-13T06:03:31;6.16;71.51
65876;HTU21D;52657;51.128;5.938;2023-02-13T06:05:58;6.19;71.67
65876;HTU21D;52657;51.128;5.938;2023-02-13T06:08:24;6.21;71.93
65876;HTU21D;52657;51.128;5.938;2023-02-13T06:10:50;6.23;72.18
65876;HTU21D;52657;51.128;5.938;2023-02-13T06:13:17;6.28;72.28
65876;HTU21D;52657;51.128;5.938;2023-02-13T06:15:43;6.28;72.45
65876;HTU21D;52657;51.128;5.938;2023-02-13T06:18:11;6.33;72.50
65876;HTU21D;52657;51.128;5.938;2023-02-13T06:20:37;6.33;72.40
65876;HTU21D;52657;51.128;5.938;2023-02-13T06:23:03;6.33;72.10
65876;HTU21D;52657;51.128;5.938;2023-02-13T06:25:29;6.34;71.74
65876;HTU21D;52657;51.128;5.938;2023-02-13T06:27:55;6.31;71.37
65876;HTU21D;52657;51.128;5.938;2023-02-13T06:30:21;6.28;71.32
65876;HTU21D;52657;51.128;5.938;2023-02-13T06:32:48;6.29;70.99
65876;HTU21D;52657;51.128;5.938;2023-02-13T06:35:14;6.26;71.11
65876;HTU21D;52657;51.128;5.938;2023-02-13T06:37:40;6.25;71.05
65876;HTU21D;52657;51.128;5.938;2023-02-13T06:40:09;6.24;71.00
65876;HTU21D;52657;51.128;5.938;2023-02-13T06:42:35;6.26;71.26
65876;HTU21D;52657;51.128;5.938;2023-02-13T06:45:02;6.26;71.39
65876;HTU21D;52657;51.128;5.938;2023-02-13T06:47:28;6.25;71.33
65876;HTU21D;52657;51.128;5.938;2023-02-13T06:49:53;6.25;71.15
65876;HTU21D;52657;51.128;5.938;2023-02-13T06:52:19;6.26;70.74
65876;HTU21D;52657;51.128;5.938;2023-02-13T06:54:45;6.25;70.52
65876;HTU21D;52657;51.128;5.938;2023-02-13T06:57:11;6.22;70.39
65876;HTU21D;52657;51.128;5.938;2023-02-13T06:59:36;6.17;70.10
65876;HTU21D;52657;51.128;5.938;2023-02-13T07:02:02;6.14;69.98
65876;HTU21D;52657;51.128;5.938;2023-02-13T07:04:28;6.12;69.68
65876;HTU21D;52657;51.128;5.938;2023-02-13T07:06:54;6.09;69.33
65876;HTU21D;52657;51.128;5.938;2023-02-13T07:09:22;6.04;69.11
65876;HTU21D;52657;51.128;5.938;2023-02-13T07:11:49;6.00;69.12
65876;HTU21D;52657;51.128;5.938;2023-02-13T07:14:14;5.98;68.99
65876;HTU21D;52657;51.128;5.938;2023-02-13T07:16:40;5.94;68.90
65876;HTU21D;52657;51.128;5.938;2023-02-13T07:19:06;5.86;69.12
65876;HTU21D;52657;51.128;5.938;2023-02-13T07:21:32;5.87;69.10
65876;HTU21D;52657;51.128;5.938;2023-02-13T07:23:57;5.90;69.01
65876;HTU21D;52657;51.128;5.938;2023-02-13T07:26:23;5.94;68.88
65876;HTU21D;52657;51.128;5.938;2023-02-13T07:28:51;5.95;68.87
65876;HTU21D;52657;51.128;5.938;2023-02-13T07:31:17;5.98;68.89
65876;HTU21D;52657;51.128;5.938;2023-02-13T07:33:43;6.00;68.94
65876;HTU21D;52657;51.128;5.938;2023-02-13T07:36:09;6.06;68.87
65876;HTU21D;52657;51.128;5.938;2023-02-13T07:38:34;6.10;68.72
65876;HTU21D;52657;51.128;5.938;2023-02-13T07:41:02;6.14;68.78
65876;HTU21D;52657;51.128;5.938;2023-02-13T07:43:29;6.16;68.73
65876;HTU21D;52657;51.128;5.938;2023-02-13T07:46:00;6.21;68.62
65876;HTU21D;52657;51.128;5.938;2023-02-13T07:48:27;6.26;68.55
65876;HTU21D;52657;51.128;5.938;2023-02-13T07:50:58;6.30;68.38
65876;HTU21D;52657;51.128;5.938;2023-02-13T07:53:23;6.36;68.26
65876;HTU21D;52657;51.128;5.938;2023-02-13T07:55:49;6.53;68.77
65876;HTU21D;52657;51.128;5.938;2023-02-13T07:58:15;7.11;70.48
65876;HTU21D;52657;51.128;5.938;2023-02-13T08:00:41;7.82;69.42
65876;HTU21D;52657;51.128;5.938;2023-02-13T08:03:06;8.38;67.36
65876;HTU21D;52657;51.128;5.938;2023-02-13T08:05:33;8.92;65.49
65876;HTU21D;52657;51.128;5.938;2023-02-13T08:07:59;9.48;63.85
65876;HTU21D;52657;51.128;5.938;2023-02-13T08:10:25;10.08;62.21
65876;HTU21D;52657;51.128;5.938;2023-02-13T08:13:12;10.62;60.02
65876;HTU21D;52657;51.128;5.938;2023-02-13T08:15:39;11.00;58.87
65876;HTU21D;52657;51.128;5.938;2023-02-13T08:18:06;11.42;57.66
65876;HTU21D;52657;51.128;5.938;2023-02-13T08:20:32;11.72;56.66
65876;HTU21D;52657;51.128;5.938;2023-02-13T08:23:02;12.19;55.60
65876;HTU21D;52657;51.128;5.938;2023-02-13T08:25:29;12.75;54.55
65876;HTU21D;52657;51.128;5.938;2023-02-13T08:27:54;13.26;53.44
65876;HTU21D;52657;51.128;5.938;2023-02-13T08:30:20;13.76;52.40
65876;HTU21D;52657;51.128;5.938;2023-02-13T08:32:47;14.21;50.92
65876;HTU21D;52657;51.128;5.938;2023-02-13T08:35:13;14.62;49.81
65876;HTU21D;52657;51.128;5.938;2023-02-13T08:37:38;14.95;48.92
65876;HTU21D;52657;51.128;5.938;2023-02-13T08:40:05;15.24;48.10
65876;HTU21D;52657;51.128;5.938;2023-02-13T08:42:31;15.49;47.34
65876;HTU21D;52657;51.128;5.938;2023-02-13T08:44:56;15.77;46.74
65876;HTU21D;52657;51.128;5.938;2023-02-13T08:47:22;16.05;46.21
65876;HTU21D;52657;51.128;5.938;2023-02-13T08:49:48;16.34;45.68
65876;HTU21D;52657;51.128;5.938;2023-02-13T08:52:13;16.62;45.02
65876;HTU21D;52657;51.128;5.938;2023-02-13T08:54:39;16.90;44.34
65876;HTU21D;52657;51.128;5.938;2023-02-13T08:57:05;17.17;43.86
65876;HTU21D;52657;51.128;5.938;2023-02-13T08:59:31;17.37;43.69
65876;HTU21D;52657;51.128;5.938;2023-02-13T09:01:56;17.51;43.42
65876;HTU21D;52657;51.128;5.938;2023-02-13T09:04:22;17.60;43.29
65876;HTU21D;52657;51.128;5.938;2023-02-13T09:06:48;17.69;43.13
65876;HTU21D;52657;51.128;5.938;2023-02-13T09:09:14;17.78;43.19
65876;HTU21D;52657;51.128;5.938;2023-02-13T09:11:40;17.95;43.13
65876;HTU21D;52657;51.128;5.938;2023-02-13T09:14:06;18.14;42.81
65876;HTU21D;52657;51.128;5.938;2023-02-13T09:16:32;18.36;42.41
65876;HTU21D;52657;51.128;5.938;2023-02-13T09:18:57;18.43;42.29
65876;HTU21D;52657;51.128;5.938;2023-02-13T09:21:25;18.47;42.03
65876;HTU21D;52657;51.128;5.938;2023-02-13T09:23:50;18.56;42.21
65876;HTU21D;52657;51.128;5.938;2023-02-13T09:26:18;18.77;41.69
65876;HTU21D;52657;51.128;5.938;2023-02-13T09:28:43;18.93;41.16
65876;HTU21D;52657;51.128;5.938;2023-02-13T09:31:15;19.05;41.07
65876;HTU21D;52657;51.128;5.938;2023-02-13T09:33:43;19.28;40.83
65876;HTU21D;52657;51.128;5.938;2023-02-13T09:36:13;19.41;40.49
65876;HTU21D;52657;51.128;5.938;2023-02-13T09:38:41;19.50;40.35
65876;HTU21D;52657;51.128;5.938;2023-02-13T09:41:15;19.50;40.39
65876;HTU21D;52657;51.128;5.938;2023-02-13T09:46:33;19.74;39.79
65876;HTU21D;52657;51.128;5.938;2023-02-13T09:49:14;19.89;39.54
65876;HTU21D;52657;51.128;5.938;2023-02-13T09:51:44;19.88;39.27
65876;HTU21D;52657;51.128;5.938;2023-02-13T09:54:15;19.91;39.61
65876;HTU21D;52657;51.128;5.938;2023-02-13T09:59:38;20.09;39.30
65876;HTU21D;52657;51.128;5.938;2023-02-13T10:02:22;20.06;39.14
65876;HTU21D;52657;51.128;5.938;2023-02-13T10:19:12;19.62;40.59
65876;HTU21D;52657;51.128;5.938;2023-02-13T10:21:51;19.71;41.01
65876;HTU21D;52657;51.128;5.938;2023-02-13T10:24:36;19.79;40.68
65876;HTU21D;52657;51.128;5.938;2023-02-13T10:27:21;19.63;40.87
65876;HTU21D;52657;51.128;5.938;2023-02-13T10:38:23;18.18;41.89
65876;HTU21D;52657;51.128;5.938;2023-02-13T11:00:39;14.42;53.43
65876;HTU21D;52657;51.128;5.938;2023-02-13T11:03:18;14.29;53.68
65876;HTU21D;52657;51.128;5.938;2023-02-13T11:05:44;14.20;54.39
65876;HTU21D;52657;51.128;5.938;2023-02-13T11:08:19;14.14;54.85
65876;HTU21D;52657;51.128;5.938;2023-02-13T11:10:46;14.12;55.16
65876;HTU21D;52657;51.128;5.938;2023-02-13T11:13:22;14.04;55.39
65876;HTU21D;52657;51.128;5.938;2023-02-13T11:16:08;14.00;55.58
65876;HTU21D;52657;51.128;5.938;2023-02-13T11:18:48;13.98;55.84
65876;HTU21D;52657;51.128;5.938;2023-02-13T11:21:34;13.98;56.15
65876;HTU21D;52657;51.128;5.938;2023-02-13T11:24:00;14.03;56.39
65876;HTU21D;52657;51.128;5.938;2023-02-13T11:26:33;14.09;56.25
65876;HTU21D;52657;51.128;5.938;2023-02-13T11:29:04;14.11;56.27
65876;HTU21D;52657;51.128;5.938;2023-02-13T11:31:33;14.11;56.34
65876;HTU21D;52657;51.128;5.938;2023-02-13T11:34:26;14.17;56.63
65876;HTU21D;52657;51.128;5.938;2023-02-13T11:37:06;14.20;56.53
65876;HTU21D;52657;51.128;5.938;2023-02-13T11:39:32;14.23;56.71
65876;HTU21D;52657;51.128;5.938;2023-02-13T11:41:58;14.25;56.60
65876;HTU21D;52657;51.128;5.938;2023-02-13T11:44:29;14.26;56.62
65876;HTU21D;52657;51.128;5.938;2023-02-13T11:46:59;14.27;56.58
65876;HTU21D;52657;51.128;5.938;2023-02-13T11:49:30;14.28;56.69
65876;HTU21D;52657;51.128;5.938;2023-02-13T11:52:23;14.32;56.93
65876;HTU21D;52657;51.128;5.938;2023-02-13T11:55:02;14.35;56.55
65876;HTU21D;52657;51.128;5.938;2023-02-13T11:57:31;14.34;56.68
65876;HTU21D;52657;51.128;5.938;2023-02-13T11:59:59;14.37;56.42
65876;HTU21D;52657;51.128;5.938;2023-02-13T12:02:27;14.39;56.48
65876;HTU21D;52657;51.128;5.938;2023-02-13T12:07:44;14.41;55.52
65876;HTU21D;52657;51.128;5.938;2023-02-13T12:10:25;14.49;55.30
65876;HTU21D;52657;51.128;5.938;2023-02-13T12:12:55;14.53;55.37
65876;HTU21D;52657;51.128;5.938;2023-02-13T12:15:23;14.55;55.55
65876;HTU21D;52657;51.128;5.938;2023-02-13T12:23:47;14.63;55.66
65876;HTU21D;52657;51.128;5.938;2023-02-13T12:26:31;14.64;55.35
65876;HTU21D;52657;51.128;5.938;2023-02-13T12:32:07;14.63;55.55
65876;HTU21D;52657;51.128;5.938;2023-02-13T12:34:48;14.67;55.87
65876;HTU21D;52657;51.128;5.938;2023-02-13T12:48:34;14.96;54.97
65876;HTU21D;52657;51.128;5.938;2023-02-13T12:51:09;14.94;55.08
65876;HTU21D;52657;51.128;5.938;2023-02-13T12:54:13;14.94;54.93
65876;HTU21D;52657;51.128;5.938;2023-02-13T13:19:15;15.26;55.20
65876;HTU21D;52657;51.128;5.938;2023-02-13T13:21:54;15.31;54.97
65876;HTU21D;52657;51.128;5.938;2023-02-13T13:26:56;15.37;54.77
65876;HTU21D;52657;51.128;5.938;2023-02-13T13:29:34;15.42;54.30
65876;HTU21D;52657;51.128;5.938;2023-02-13T13:32:10;15.44;54.48
65876;HTU21D;52657;51.128;5.938;2023-02-13T13:34:39;15.47;54.62
65876;HTU21D;52657;51.128;5.938;2023-02-13T13:43:04;15.52;54.09
65876;HTU21D;52657;51.128;5.938;2023-02-13T13:50:58;15.61;53.97
65876;HTU21D;52657;51.128;5.938;2023-02-13T13:53:24;15.61;54.24
65876;HTU21D;52657;51.128;5.938;2023-02-13T14:01:25;15.60;53.30
65876;HTU21D;52657;51.128;5.938;2023-02-13T14:07:15;15.58;53.45
65876;HTU21D;52657;51.128;5.938;2023-02-13T14:09:48;15.55;53.62
65876;HTU21D;52657;51.128;5.938;2023-02-13T14:12:44;15.56;53.46
65876;HTU21D;52657;51.128;5.938;2023-02-13T14:18:19;15.57;53.68
65876;HTU21D;52657;51.128;5.938;2023-02-13T14:20:49;15.59;53.72
65876;HTU21D;52657;51.128;5.938;2023-02-13T14:33:41;15.69;53.68
65876;HTU21D;52657;51.128;5.938;2023-02-13T14:36:20;15.67;53.56
65876;HTU21D;52657;51.128;5.938;2023-02-13T14:38:59;15.68;53.72
65876;HTU21D;52657;51.128;5.938;2023-02-13T14:42:30;15.69;53.49
65876;HTU21D;52657;51.128;5.938;2023-02-13T14:44:46;15.69;53.33
65876;HTU21D;52657;51.128;5.938;2023-02-13T14:47:26;15.71;53.37
65876;HTU21D;52657;51.128;5.938;2023-02-13T14:49:56;15.75;53.43
65876;HTU21D;52657;51.128;5.938;2023-02-13T14:52:36;15.76;53.12
65876;HTU21D;52657;51.128;5.938;2023-02-13T14:57:46;15.76;53.20
65876;HTU21D;52657;51.128;5.938;2023-02-13T15:03:07;15.71;53.07
65876;HTU21D;52657;51.128;5.938;2023-02-13T15:05:38;15.72;53.04
65876;HTU21D;52657;51.128;5.938;2023-02-13T15:08:12;15.74;52.94
65876;HTU21D;52657;51.128;5.938;2023-02-13T15:10:49;15.73;52.88
65876;HTU21D;52657;51.128;5.938;2023-02-13T15:13:15;15.73;52.75
65876;HTU21D;52657;51.128;5.938;2023-02-13T15:15:50;15.70;52.79
65876;HTU21D;52657;51.128;5.938;2023-02-13T15:18:21;15.70;52.68
65876;HTU21D;52657;51.128;5.938;2023-02-13T15:20:49;15.67;52.78
65876;HTU21D;52657;51.128;5.938;2023-02-13T15:23:23;15.68;52.72
65876;HTU21D;52657;51.128;5.938;2023-02-13T15:26:02;15.68;52.89
65876;HTU21D;52657;51.128;5.938;2023-02-13T15:28:30;15.67;52.95
65876;HTU21D;52657;51.128;5.938;2023-02-13T15:31:02;15.66;52.77
65876;HTU21D;52657;51.128;5.938;2023-02-13T15:33:44;15.63;52.72
65876;HTU21D;52657;51.128;5.938;2023-02-13T15:36:34;15.59;52.90
65876;HTU21D;52657;51.128;5.938;2023-02-13T15:39:05;15.57;53.00
65876;HTU21D;52657;51.128;5.938;2023-02-13T15:41:37;15.57;52.92
65876;HTU21D;52657;51.128;5.938;2023-02-13T15:44:04;15.57;52.75
65876;HTU21D;52657;51.128;5.938;2023-02-13T15:46:33;15.53;52.80
65876;HTU21D;52657;51.128;5.938;2023-02-13T15:49:05;15.55;52.81
65876;HTU21D;52657;51.128;5.938;2023-02-13T15:51:32;15.48;52.72
65876;HTU21D;52657;51.128;5.938;2023-02-13T15:56:44;15.41;52.78
65876;HTU21D;52657;51.128;5.938;2023-02-13T15:59:12;15.40;52.91
65876;HTU21D;52657;51.128;5.938;2023-02-13T16:01:40;15.40;53.00
65876;HTU21D;52657;51.128;5.938;2023-02-13T16:04:12;15.39;53.07
65876;HTU21D;52657;51.128;5.938;2023-02-13T16:06:41;15.38;53.15
65876;HTU21D;52657;51.128;5.938;2023-02-13T16:09:23;15.34;53.21
65876;HTU21D;52657;51.128;5.938;2023-02-13T16:11:50;15.31;53.41
65876;HTU21D;52657;51.128;5.938;2023-02-13T16:14:24;15.28;53.50
65876;HTU21D;52657;51.128;5.938;2023-02-13T16:17:33;15.26;53.60
65876;HTU21D;52657;51.128;5.938;2023-02-13T16:20:03;15.24;53.83
65876;HTU21D;52657;51.128;5.938;2023-02-13T16:22:43;15.21;53.93
65876;HTU21D;52657;51.128;5.938;2023-02-13T16:27:50;15.12;54.70
65876;HTU21D;52657;51.128;5.938;2023-02-13T16:35:41;14.94;55.39
65876;HTU21D;52657;51.128;5.938;2023-02-13T16:38:41;14.84;55.73
65876;HTU21D;52657;51.128;5.938;2023-02-13T16:41:28;14.77;56.16
65876;HTU21D;52657;51.128;5.938;2023-02-13T16:44:04;14.67;56.36
65876;HTU21D;52657;51.128;5.938;2023-02-13T16:46:35;14.62;56.47
65876;HTU21D;52657;51.128;5.938;2023-02-13T17:04:49;14.15;57.64
65876;HTU21D;52657;51.128;5.938;2023-02-13T17:07:19;14.07;57.80
65876;HTU21D;52657;51.128;5.938;2023-02-13T17:09:55;13.98;57.93
65876;HTU21D;52657;51.128;5.938;2023-02-13T17:12:21;13.86;58.29
65876;HTU21D;52657;51.128;5.938;2023-02-13T17:14:48;13.79;58.41
65876;HTU21D;52657;51.128;5.938;2023-02-13T17:17:19;13.75;58.41
65876;HTU21D;52657;51.128;5.938;2023-02-13T17:19:46;13.69;58.49
65876;HTU21D;52657;51.128;5.938;2023-02-13T17:22:26;13.63;58.59
65876;HTU21D;52657;51.128;5.938;2023-02-13T17:24:55;13.60;58.58
65876;HTU21D;52657;51.128;5.938;2023-02-13T17:27:20;13.55;58.64
65876;HTU21D;52657;51.128;5.938;2023-02-13T17:29:47;13.49;58.69
65876;HTU21D;52657;51.128;5.938;2023-02-13T17:32:17;13.45;58.80
65876;HTU21D;52657;51.128;5.938;2023-02-13T17:34:44;13.39;59.06
65876;HTU21D;52657;51.128;5.938;2023-02-13T17:37:18;13.35;59.22
65876;HTU21D;52657;51.128;5.938;2023-02-13T17:39:44;13.31;59.32
65876;HTU21D;52657;51.128;5.938;2023-02-13T17:42:25;13.24;59.51
65876;HTU21D;52657;51.128;5.938;2023-02-13T17:44:53;13.19;59.57
65876;HTU21D;52657;51.128;5.938;2023-02-13T17:47:20;13.15;59.77
65876;HTU21D;52657;51.128;5.938;2023-02-13T17:49:46;13.10;59.85
65876;HTU21D;52657;51.128;5.938;2023-02-13T17:52:22;13.03;60.00
65876;HTU21D;52657;51.128;5.938;2023-02-13T17:54:49;12.96;60.06
65876;HTU21D;52657;51.128;5.938;2023-02-13T17:57:17;12.90;60.15
65876;HTU21D;52657;51.128;5.938;2023-02-13T17:59:44;12.87;60.18
65876;HTU21D;52657;51.128;5.938;2023-02-13T18:02:22;12.84;60.10
65876;HTU21D;52657;51.128;5.938;2023-02-13T18:04:49;12.80;60.31
65876;HTU21D;52657;51.128;5.938;2023-02-13T18:07:18;12.73;60.56
65876;HTU21D;52657;51.128;5.938;2023-02-13T18:09:44;12.67;60.49
65876;HTU21D;52657;51.128;5.938;2023-02-13T18:12:14;12.63;60.79
65876;HTU21D;52657;51.128;5.938;2023-02-13T18:14:41;12.58;60.77
65876;HTU21D;52657;51.128;5.938;2023-02-13T18:17:07;12.56;60.65
65876;HTU21D;52657;51.128;5.938;2023-02-13T18:19:33;12.49;60.91
65876;HTU21D;52657;51.128;5.938;2023-02-13T18:22:03;12.43;61.03
65876;HTU21D;52657;51.128;5.938;2023-02-13T18:24:30;12.40;61.04
65876;HTU21D;52657;51.128;5.938;2023-02-13T18:26:57;12.34;61.02
65876;HTU21D;52657;51.128;5.938;2023-02-13T18:29:23;12.31;60.90
65876;HTU21D;52657;51.128;5.938;2023-02-13T18:31:49;12.27;60.77
65876;HTU21D;52657;51.128;5.938;2023-02-13T18:34:21;12.22;60.65
65876;HTU21D;52657;51.128;5.938;2023-02-13T18:36:50;12.18;60.51
65876;HTU21D;52657;51.128;5.938;2023-02-13T18:39:16;12.14;60.44
65876;HTU21D;52657;51.128;5.938;2023-02-13T18:41:43;12.12;60.48
65876;HTU21D;52657;51.128;5.938;2023-02-13T18:44:09;12.03;60.55
65876;HTU21D;52657;51.128;5.938;2023-02-13T18:46:35;11.98;60.73
65876;HTU21D;52657;51.128;5.938;2023-02-13T18:49:01;11.91;60.72
65876;HTU21D;52657;51.128;5.938;2023-02-13T18:51:27;11.88;61.11
65876;HTU21D;52657;51.128;5.938;2023-02-13T18:53:52;11.86;61.16
65876;HTU21D;52657;51.128;5.938;2023-02-13T18:56:18;11.77;61.25
65876;HTU21D;52657;51.128;5.938;2023-02-13T18:58:49;11.68;61.55
65876;HTU21D;52657;51.128;5.938;2023-02-13T19:01:18;11.60;62.01